createdAt,value
2023-12-08T00:01:10.855Z,101025.78
2023-12-08T00:03:37.508Z,101027.50
2023-12-08T00:06:04.112Z,101010.69
2023-12-08T00:08:31.190Z,101004.41
2023-12-08T00:10:57.595Z,100999.94
2023-12-08T00:13:26.800Z,100996.44
2023-12-08T00:15:53.270Z,100986.66
2023-12-08T00:18:19.762Z,100981.22
2023-12-08T00:20:46.203Z,100973.34
2023-12-08T00:23:12.747Z,100969.75
2023-12-08T00:25:39.200Z,100978.53
2023-12-08T00:28:09.583Z,100979.41
2023-12-08T00:30:36.395Z,100979.41
2023-12-08T00:33:05.766Z,100985.72
2023-12-08T00:35:33.618Z,100971.41
2023-12-08T00:38:00.224Z,100973.13
2023-12-08T00:40:27.040Z,100959.84
2023-12-08T00:42:53.512Z,100946.53
2023-12-08T00:45:20.572Z,100935.78
2023-12-08T00:47:47.247Z,100932.28
2023-12-08T00:50:13.751Z,100922.47
2023-12-08T00:52:40.256Z,100915.44
2023-12-08T00:55:09.270Z,100915.44
2023-12-08T00:57:35.752Z,100906.50
2023-12-08T01:00:02.329Z,100891.41
2023-12-08T01:02:30.073Z,100889.59
2023-12-08T01:04:58.416Z,100892.34
2023-12-08T01:07:25.344Z,100902.06
2023-12-08T01:09:51.998Z,100905.66
2023-12-08T01:12:18.477Z,100902.13
2023-12-08T01:14:44.889Z,100914.38
2023-12-08T01:17:11.437Z,100918.97
2023-12-08T01:19:38.021Z,100919.69
2023-12-08T01:22:04.698Z,100912.69
2023-12-08T01:24:31.084Z,100909.19
2023-12-08T01:26:57.562Z,100893.94
2023-12-08T01:29:24.092Z,100895.75
2023-12-08T01:31:50.525Z,100898.31
2023-12-08T01:34:17.463Z,100898.22
2023-12-08T01:36:44.627Z,100902.69
2023-12-08T01:39:11.915Z,100898.31
2023-12-08T01:41:38.600Z,100892.16
2023-12-08T01:44:05.279Z,100905.38
2023-12-08T01:46:31.810Z,100911.53
2023-12-08T01:49:02.441Z,100921.34
2023-12-08T01:51:29.122Z,100915.06
2023-12-08T01:53:56.156Z,100902.63
2023-12-08T01:56:23.198Z,100906.97
2023-12-08T01:58:49.815Z,100910.47
2023-12-08T02:01:16.746Z,100906.88
2023-12-08T02:03:45.758Z,100915.72
2023-12-08T02:06:12.472Z,100913.91
2023-12-08T02:08:39.168Z,100907.72
2023-12-08T02:11:07.004Z,100909.44
2023-12-08T02:13:34.157Z,100897.72
2023-12-08T02:16:10.789Z,100887.09
2023-12-08T02:18:39.716Z,100888.81
2023-12-08T02:21:09.808Z,100878.06
2023-12-08T02:23:37.090Z,100870.06
2023-12-08T02:26:08.240Z,100876.13
2023-12-08T02:28:34.689Z,100869.97
2023-12-08T02:31:04.090Z,100863.69
2023-12-08T02:33:31.645Z,100859.22
2023-12-08T02:36:01.162Z,100843.25
2023-12-08T02:38:27.821Z,100847.72
2023-12-08T02:40:55.882Z,100838.88
2023-12-08T02:43:22.318Z,100835.34
2023-12-08T02:45:51.742Z,100833.63
2023-12-08T02:48:21.143Z,100834.69
2023-12-08T02:50:47.725Z,100826.72
2023-12-08T02:53:14.213Z,100807.31
2023-12-08T02:55:40.655Z,100813.63
2023-12-08T02:58:07.171Z,100814.56
2023-12-08T03:00:33.653Z,100801.34
2023-12-08T03:03:00.348Z,100805.06
2023-12-08T03:05:29.872Z,100802.59
2023-12-08T03:07:56.307Z,100801.84
2023-12-08T03:10:22.739Z,100800.16
2023-12-08T03:12:49.520Z,100793.97
2023-12-08T03:15:16.191Z,100796.75
2023-12-08T03:17:45.788Z,100788.84
2023-12-08T03:20:12.461Z,100788.00
2023-12-08T03:22:41.779Z,100784.56
2023-12-08T03:25:08.648Z,100775.63
2023-12-08T03:27:35.150Z,100776.50
2023-12-08T03:30:01.791Z,100767.78
2023-12-08T03:32:28.359Z,100768.72
2023-12-08T03:34:54.777Z,100765.13
2023-12-08T03:37:21.285Z,100761.59
2023-12-08T03:39:47.909Z,100761.59
2023-12-08T03:42:14.503Z,100765.28
2023-12-08T03:44:41.160Z,100754.56
2023-12-08T03:47:07.620Z,100759.03
2023-12-08T03:49:34.220Z,100752.94
2023-12-08T03:52:00.738Z,100756.47
2023-12-08T03:54:27.652Z,100756.47
2023-12-08T03:56:54.135Z,100756.66
2023-12-08T03:59:20.618Z,100757.63
2023-12-08T04:01:46.991Z,100759.41
2023-12-08T04:04:25.341Z,100761.22
2023-12-08T04:06:53.646Z,100771.88
2023-12-08T04:09:23.607Z,100770.28
2023-12-08T04:11:50.790Z,100759.53
2023-12-08T04:14:17.258Z,100764.09
2023-12-08T04:16:51.245Z,100764.94
2023-12-08T04:19:19.731Z,100779.09
2023-12-08T04:21:46.545Z,100777.41
2023-12-08T04:24:13.346Z,100776.44
2023-12-08T04:26:46.120Z,100776.44
2023-12-08T04:29:12.856Z,100778.25
2023-12-08T04:31:39.498Z,100776.31
2023-12-08T04:34:06.123Z,100778.16
2023-12-08T04:36:32.600Z,100782.63
2023-12-08T04:38:59.138Z,100781.78
2023-12-08T04:41:25.758Z,100780.81
2023-12-08T04:43:52.353Z,100782.50
2023-12-08T04:46:21.311Z,100770.91
2023-12-08T04:48:48.393Z,100768.34
2023-12-08T04:51:15.065Z,100772.84
2023-12-08T04:53:41.643Z,100775.38
2023-12-08T04:56:08.791Z,100776.25
2023-12-08T04:58:35.189Z,100762.06
2023-12-08T05:01:01.655Z,100762.94
2023-12-08T05:03:28.114Z,100767.41
2023-12-08T05:05:54.673Z,100763.78
2023-12-08T05:08:21.116Z,100776.25
2023-12-08T05:10:47.525Z,100772.63
2023-12-08T05:13:14.000Z,100766.38
2023-12-08T05:15:40.448Z,100759.13
2023-12-08T05:18:07.180Z,100740.63
2023-12-08T05:20:34.914Z,100744.09
2023-12-08T05:23:01.382Z,100746.66
2023-12-08T05:25:27.848Z,100751.03
2023-12-08T05:27:54.266Z,100745.81
2023-12-08T05:30:20.757Z,100743.06
2023-12-08T05:32:47.521Z,100740.41
2023-12-08T05:35:14.678Z,100735.84
2023-12-08T05:37:41.073Z,100737.66
2023-12-08T05:40:08.426Z,100736.66
2023-12-08T05:42:34.787Z,100737.66
2023-12-08T05:45:01.418Z,100749.03
2023-12-08T05:47:28.050Z,100745.50
2023-12-08T05:49:54.544Z,100738.38
2023-12-08T05:52:20.993Z,100738.38
2023-12-08T05:54:47.491Z,100739.16
2023-12-08T05:57:17.389Z,100742.66
2023-12-08T05:59:43.922Z,100747.13
2023-12-08T06:02:10.581Z,100739.03
2023-12-08T06:04:37.022Z,100750.53
2023-12-08T06:07:05.101Z,100744.34
2023-12-08T06:09:31.670Z,100758.41
2023-12-08T06:11:58.139Z,100756.53
2023-12-08T06:14:24.600Z,100754.69
2023-12-08T06:16:51.074Z,100762.69
2023-12-08T06:19:18.156Z,100766.97
2023-12-08T06:21:44.684Z,100766.09
2023-12-08T06:24:11.279Z,100763.34
2023-12-08T06:26:39.402Z,100760.78
2023-12-08T06:29:05.954Z,100759.91
2023-12-08T06:31:32.519Z,100759.81
2023-12-08T06:34:09.364Z,100764.22
2023-12-08T06:37:02.936Z,100759.63
2023-12-08T06:39:32.117Z,100774.63
2023-12-08T06:41:58.719Z,100775.50
2023-12-08T06:44:28.907Z,100776.34
2023-12-08T06:46:55.366Z,100769.97
2023-12-08T06:49:21.906Z,100758.44
2023-12-08T06:51:48.541Z,100766.34
2023-12-08T06:54:14.985Z,100756.56
2023-12-08T06:56:43.287Z,100760.94
2023-12-08T06:59:10.221Z,100766.25
2023-12-08T07:01:37.648Z,100755.59
2023-12-08T07:04:09.669Z,100762.53
2023-12-08T07:06:36.304Z,100760.63
2023-12-08T07:09:06.097Z,100765.72
2023-12-08T07:11:35.163Z,100772.78
2023-12-08T07:14:01.662Z,100765.63
2023-12-08T07:16:28.614Z,100764.66
2023-12-08T07:18:57.253Z,100756.66
2023-12-08T07:21:24.804Z,100761.06
2023-12-08T07:23:51.354Z,100769.03
2023-12-08T07:26:17.920Z,100769.81
2023-12-08T07:28:44.320Z,100769.81
2023-12-08T07:31:10.997Z,100773.31
2023-12-08T07:33:37.582Z,100784.69
2023-12-08T07:36:05.791Z,100790.88
2023-12-08T07:38:32.222Z,100781.94
2023-12-08T07:40:59.691Z,100779.38
2023-12-08T07:43:26.117Z,100783.84
2023-12-08T07:45:55.186Z,100791.84
2023-12-08T07:48:24.124Z,100794.41
2023-12-08T07:50:50.884Z,100788.22
2023-12-08T07:53:17.476Z,100781.09
2023-12-08T07:55:43.979Z,100792.50
2023-12-08T07:58:10.477Z,100790.66
2023-12-08T08:00:38.512Z,100792.50
2023-12-08T08:03:07.876Z,100790.56
2023-12-08T08:05:34.422Z,100800.28
2023-12-08T08:08:00.892Z,100803.81
2023-12-08T08:10:28.244Z,100791.34
2023-12-08T08:12:57.670Z,100804.66
2023-12-08T08:15:24.166Z,100813.50
2023-12-08T08:17:50.947Z,100819.56
2023-12-08T08:20:17.456Z,100816.91
2023-12-08T08:22:54.439Z,100827.47
2023-12-08T08:25:21.081Z,100821.19
2023-12-08T08:27:47.623Z,100828.19
2023-12-08T08:30:14.293Z,100821.91
2023-12-08T08:32:40.798Z,100819.16
2023-12-08T08:35:09.311Z,100815.66
2023-12-08T08:37:35.860Z,100821.69
2023-12-08T08:40:03.581Z,100818.00
2023-12-08T08:42:30.064Z,100818.84
2023-12-08T08:44:56.599Z,100817.78
2023-12-08T08:47:23.166Z,100822.16
2023-12-08T08:49:50.490Z,100822.06
2023-12-08T08:52:17.153Z,100823.78
2023-12-08T08:54:43.747Z,100825.38
2023-12-08T08:57:12.673Z,100825.28
2023-12-08T08:59:41.662Z,100823.47
2023-12-08T09:02:08.567Z,100829.31
2023-12-08T09:04:35.062Z,100834.75
2023-12-08T09:07:01.713Z,100844.34
2023-12-08T09:09:30.710Z,100838.06
2023-12-08T09:11:57.346Z,100853.09
2023-12-08T09:14:23.827Z,100842.31
2023-12-08T09:16:50.308Z,100839.56
2023-12-08T09:19:16.846Z,100848.31
2023-12-08T09:21:52.119Z,100843.84
2023-12-08T09:24:24.047Z,100843.63
2023-12-08T09:26:50.573Z,100839.88
2023-12-08T09:29:19.739Z,100859.41
2023-12-08T09:31:46.493Z,100856.66
2023-12-08T09:34:13.192Z,100850.25
2023-12-08T09:36:39.877Z,100836.72
2023-12-08T09:39:06.519Z,100842.06
2023-12-08T09:41:33.129Z,100853.34
2023-12-08T09:44:05.884Z,100838.13
2023-12-08T09:46:34.258Z,100845.03
2023-12-08T09:49:16.885Z,100844.81
2023-12-08T09:51:47.531Z,100845.59
2023-12-08T09:54:13.976Z,100845.34
2023-12-08T09:56:40.504Z,100845.16
2023-12-08T09:59:11.495Z,100843.22
2023-12-08T10:01:38.103Z,100848.47
2023-12-08T10:04:05.511Z,100843.00
2023-12-08T10:06:36.314Z,100841.09
2023-12-08T10:09:07.663Z,100841.88
2023-12-08T10:11:34.819Z,100847.06
2023-12-08T10:14:01.734Z,100848.78
2023-12-08T10:16:31.319Z,100847.84
2023-12-08T10:19:08.747Z,100852.22
2023-12-08T10:21:38.484Z,100853.88
2023-12-08T10:24:06.037Z,100854.56
2023-12-08T10:26:36.083Z,100858.09
2023-12-08T10:29:02.580Z,100858.59
2023-12-08T10:31:29.318Z,100843.34
2023-12-08T10:33:57.051Z,100839.50
2023-12-08T10:36:26.632Z,100851.88
2023-12-08T10:38:56.242Z,100850.78
2023-12-08T10:41:23.482Z,100859.34
2023-12-08T10:43:50.063Z,100854.53
2023-12-08T10:46:36.097Z,100859.66
2023-12-08T10:49:05.148Z,100856.88
2023-12-08T10:51:34.408Z,100852.91
2023-12-08T10:54:00.804Z,100847.47
2023-12-08T10:56:27.453Z,100847.25
2023-12-08T10:59:04.119Z,100860.50
2023-12-08T11:01:34.359Z,100853.97
2023-12-08T11:04:06.877Z,100851.19
2023-12-08T11:06:43.987Z,100846.50
2023-12-08T11:09:13.512Z,100852.56
2023-12-08T11:11:51.036Z,100850.50
2023-12-08T11:14:29.870Z,100838.88
2023-12-08T11:17:01.545Z,100834.41
2023-12-08T11:19:30.672Z,100828.72
2023-12-08T11:21:57.602Z,100834.59
2023-12-08T11:24:26.378Z,100828.81
2023-12-08T11:27:11.372Z,100829.53
2023-12-08T11:29:55.939Z,100833.69
2023-12-08T11:32:36.969Z,100837.84
2023-12-08T11:35:11.168Z,100840.28
2023-12-08T11:37:39.138Z,100839.94
2023-12-08T11:40:12.733Z,100844.09
2023-12-08T11:42:44.328Z,100851.78
2023-12-08T11:45:14.817Z,100845.38
2023-12-08T11:47:44.513Z,100849.50
2023-12-08T11:50:12.886Z,100848.53
2023-12-08T11:52:42.417Z,100847.22
2023-12-08T11:55:31.263Z,100848.84
2023-12-08T11:58:04.880Z,100853.84
2023-12-08T12:00:34.326Z,100846.53
2023-12-08T12:03:03.398Z,100847.19
2023-12-08T12:05:30.291Z,100858.50
2023-12-08T12:07:58.656Z,100849.38
2023-12-08T12:10:31.767Z,100848.31
2023-12-08T12:13:04.267Z,100850.84
2023-12-08T12:15:32.264Z,100855.97
2023-12-08T12:18:00.051Z,100859.16
2023-12-08T12:20:29.732Z,100860.50
2023-12-08T12:22:57.142Z,100864.31
2023-12-08T12:25:26.552Z,100864.94
2023-12-08T12:27:54.849Z,100864.69
2023-12-08T12:30:21.877Z,100873.22
2023-12-08T12:32:50.341Z,100863.88
2023-12-08T12:35:17.747Z,100874.22
2023-12-08T12:37:44.774Z,100867.66
2023-12-08T12:40:12.367Z,100867.31
2023-12-08T12:42:53.521Z,100867.06
2023-12-08T12:45:32.421Z,100863.16
2023-12-08T12:48:01.092Z,100868.06
2023-12-08T12:50:33.673Z,100859.66
2023-12-08T12:53:25.674Z,100865.63
2023-12-08T12:55:52.975Z,100870.88
2023-12-08T13:01:22.631Z,100879.28
2023-12-08T13:03:49.645Z,100878.28
2023-12-08T13:06:37.703Z,100881.47
2023-12-08T13:09:06.619Z,100889.31
2023-12-08T13:11:38.724Z,100884.66
2023-12-08T13:14:05.297Z,100888.94
2023-12-08T13:16:33.874Z,100888.81
2023-12-08T13:19:01.221Z,100884.09
2023-12-08T13:21:28.110Z,100884.91
2023-12-08T13:23:54.734Z,100891.84
2023-12-08T13:26:21.243Z,100893.56
2023-12-08T13:28:47.634Z,100898.78
2023-12-08T13:31:32.221Z,100896.97
2023-12-08T13:34:02.558Z,100900.13
2023-12-08T13:36:29.673Z,100910.59
2023-12-08T13:38:56.322Z,100909.41
2023-12-08T13:41:26.290Z,100911.81
2023-12-08T13:43:52.676Z,100906.09
2023-12-08T13:46:20.718Z,100911.84
2023-12-08T13:48:57.679Z,100914.97
2023-12-08T13:51:38.392Z,100922.03
2023-12-08T13:54:09.337Z,100927.88
2023-12-08T13:56:35.868Z,100930.31
2023-12-08T13:59:02.281Z,100927.41
2023-12-08T14:01:29.377Z,100922.28
2023-12-08T14:03:56.419Z,100932.03
2023-12-08T14:06:24.637Z,100933.38
2023-12-08T14:08:54.199Z,100925.06
2023-12-08T14:11:25.972Z,100932.13
2023-12-08T14:13:55.704Z,100932.00
2023-12-08T14:16:22.223Z,100938.09
2023-12-08T14:18:48.843Z,100934.56
2023-12-08T14:21:16.434Z,100942.50
2023-12-08T14:23:43.744Z,100941.53
2023-12-08T14:26:12.960Z,100942.34
2023-12-08T14:28:39.674Z,100938.56
2023-12-08T14:31:09.133Z,100941.84
2023-12-08T14:33:35.670Z,100945.13
2023-12-08T14:36:02.781Z,100950.97
2023-12-08T14:38:29.533Z,100954.50
2023-12-08T14:40:56.568Z,100951.72
2023-12-08T14:43:25.033Z,100948.91
2023-12-08T14:45:52.695Z,100953.16
2023-12-08T14:48:23.597Z,100954.88
2023-12-08T14:50:50.703Z,100953.91
2023-12-08T14:53:17.272Z,100952.91
2023-12-08T14:55:58.797Z,100955.47
2023-12-08T14:58:27.579Z,100956.31
2023-12-08T15:00:54.293Z,100961.56
2023-12-08T15:03:20.988Z,100954.25
2023-12-08T15:05:49.560Z,100954.84
2023-12-08T15:08:17.373Z,100969.94
2023-12-08T15:10:43.919Z,100964.47
2023-12-08T15:13:13.843Z,100965.44
2023-12-08T15:15:46.025Z,100965.72
2023-12-08T15:18:16.101Z,100966.31
2023-12-08T15:20:50.579Z,100970.69
2023-12-08T15:23:19.008Z,100972.38
2023-12-08T15:25:45.549Z,100974.81
2023-12-08T15:28:12.890Z,100973.13
2023-12-08T15:30:39.409Z,100973.84
2023-12-08T15:33:12.421Z,100977.25
2023-12-08T15:35:44.423Z,100990.66
2023-12-08T15:38:10.861Z,100988.84
2023-12-08T15:40:37.748Z,100997.72
2023-12-08T15:43:06.551Z,100992.38
2023-12-08T15:45:33.127Z,100987.00
2023-12-08T15:48:14.143Z,100988.13
2023-12-08T15:50:46.906Z,100991.03
2023-12-08T15:53:13.334Z,101002.63
2023-12-08T15:55:39.780Z,101008.09
2023-12-08T15:58:06.306Z,101013.34
2023-12-08T16:00:35.523Z,101017.00
2023-12-08T16:03:02.132Z,101013.22
2023-12-08T16:05:28.899Z,101015.06
2023-12-08T16:07:55.487Z,101021.13
2023-12-08T16:10:21.894Z,101007.72
2023-12-08T16:12:48.500Z,101016.63
2023-12-08T16:15:15.043Z,101019.47
2023-12-08T16:17:41.583Z,101026.50
2023-12-08T16:20:09.384Z,101021.13
2023-12-08T16:22:35.981Z,101027.25
2023-12-08T16:25:03.350Z,101033.09
2023-12-08T16:27:30.272Z,101032.13
2023-12-08T16:29:57.491Z,101033.09
2023-12-08T16:32:24.825Z,101036.75
2023-12-08T16:35:09.986Z,101038.34
2023-12-08T16:37:37.011Z,101039.06
2023-12-08T16:40:04.168Z,101033.69
2023-12-08T16:42:30.939Z,101031.75
2023-12-08T16:45:12.212Z,101037.97
2023-12-08T16:47:46.135Z,101041.25
2023-12-08T16:50:12.687Z,101034.91
2023-12-08T16:52:39.178Z,101041.94
2023-12-08T16:55:06.604Z,101033.78
2023-12-08T16:57:33.128Z,101034.63
2023-12-08T16:59:59.895Z,101031.97
2023-12-08T17:02:28.083Z,101038.03
2023-12-08T17:04:54.698Z,101029.00
2023-12-08T17:07:21.482Z,101028.03
2023-12-08T17:09:47.864Z,101027.94
2023-12-08T17:12:14.590Z,101028.78
2023-12-08T17:14:40.990Z,101031.56
2023-12-08T17:17:10.515Z,101032.44
2023-12-08T17:19:43.982Z,101031.56
2023-12-08T17:22:10.606Z,101030.72
2023-12-08T17:24:37.020Z,101037.91
2023-12-08T17:27:03.828Z,101040.59
2023-12-08T17:29:30.288Z,101044.03
2023-12-08T17:31:57.082Z,101041.06
2023-12-08T17:37:25.877Z,101031.19
2023-12-08T17:39:52.436Z,101036.44
2023-12-08T17:45:35.799Z,101043.28
2023-12-08T17:48:02.327Z,101037.91
2023-12-08T17:50:28.804Z,101039.63
2023-12-08T17:52:55.190Z,101043.00
2023-12-08T17:55:21.625Z,101052.03
2023-12-08T17:57:51.091Z,101039.63
2023-12-08T18:00:18.292Z,101040.59
2023-12-08T18:02:44.853Z,101040.69
2023-12-08T18:05:14.060Z,101046.91
2023-12-08T18:07:46.029Z,101043.50
2023-12-08T18:10:12.575Z,101046.34
2023-12-08T22:20:39.682Z,101113.81
2023-12-08T23:19:18.344Z,101158.81
2023-12-08T23:22:10.355Z,101161.50
